East Montpelier, Vermont
Current Conditions -  °F | °C
As of 8:51 AM on Thursday 29 Jan 2015 (Local Time) from KMPV Reporting Station
Clear Clear  
Wind Chill: -21°   Ceiling: Unl
Heat Index: -21°   Visibility: 8mi
Dew Point: -22°   Wind: 0mph
Humidity: 91%   Direction: NA
Pressure: 30.28"   Gusts: NA
Location:  44.27°N, 72.49°W
Report Text: KMPV 291351Z AUTO 00000KT 8SM CLR M21/M22 A3028 RMK AO2 SLP290 T12061217
Loading
Personal Weather Stations






























Interactive Weather Map New forecast layout! Learn more

10-Day Weather Forecast

Advertisements
Track Severe Weather on mobile